Time;durP1;ratioP1;P1;durP2;ratioP2;P2;SDS_P1;SDS_P2;PMS_P1;PMS_P2;Temp;Humidity;BMP_temperature;BMP_pressure;BME280_temperature;BME280_humidity;BME280_pressure;Samples;Min_cycle;Max_cycle;Signal;HPM_P1;HPM_P2
2024/01/14 00:00:09;;;;;;;16.70;9.30;;;8.30;99.90;;;8.43;100.00;101480.44;4973839;28;20050;-66
2024/01/14 00:02:39;;;;;;;12.52;8.00;;;8.30;99.90;;;8.44;100.00;101486.59;4974243;28;20130;-68
2024/01/14 00:05:09;;;;;;;10.80;7.35;;;8.20;99.90;;;8.46;100.00;101482.25;4973992;28;20046;-67
2024/01/14 00:07:38;;;;;;;14.87;7.60;;;8.30;99.90;;;8.43;100.00;101479.53;4973011;28;20057;-66
2024/01/14 00:10:09;;;;;;;11.98;7.40;;;8.20;99.90;;;8.48;100.00;101480.53;4973558;28;20046;-67
2024/01/14 00:12:37;;;;;;;;;;;8.20;99.90;;;8.39;100.00;101469.81;4974365;28;20058;-66
2024/01/14 00:15:06;;;;;;;11.63;7.35;;;8.20;99.90;;;8.39;100.00;101464.56;4973882;28;19932;-66
2024/01/14 00:17:35;;;;;;;13.50;7.72;;;8.20;99.90;;;8.41;100.00;101465.47;4973588;28;20054;-66
2024/01/14 00:20:05;;;;;;;13.40;8.10;;;8.20;99.90;;;8.25;100.00;101460.81;4973823;28;20089;-66
2024/01/14 00:22:33;;;;;;;14.05;7.82;;;8.10;99.90;;;8.20;100.00;101459.00;4973685;28;20644;-66
2024/01/14 00:25:02;;;;;;;17.42;8.55;;;8.00;99.90;;;8.17;100.00;101461.56;4973936;28;20129;-67
2024/01/14 00:27:32;;;;;;;14.23;8.20;;;8.00;99.90;;;7.46;100.00;101346.38;4988572;28;20698;-66
2024/01/14 00:30:01;;;;;;;13.90;8.27;;;7.90;99.90;;;8.03;100.00;101456.97;4972250;28;20081;-66
2024/01/14 00:32:29;;;;;;;18.00;8.60;;;7.90;99.90;;;7.86;100.00;101456.69;4973521;28;20475;-66
2024/01/14 00:34:58;;;;;;;14.57;8.68;;;7.70;99.90;;;7.82;100.00;101459.28;4972978;28;20047;-67
2024/01/14 00:37:26;;;;;;;14.13;9.45;;;7.70;99.90;;;7.91;100.00;101454.16;4973190;28;20435;-66
2024/01/14 00:39:55;;;;;;;15.82;9.45;;;7.70;99.90;;;7.50;100.00;101395.56;4973160;28;20471;-67
2024/01/14 00:42:23;;;;;;;17.40;10.23;;;7.60;99.90;;;7.86;100.00;101456.69;4973149;28;20043;-65
2024/01/14 00:44:53;;;;;;;14.32;10.05;;;7.70;99.90;;;7.81;100.00;101423.25;4971668;28;20058;-66
2024/01/14 00:47:22;;;;;;;18.08;10.02;;;7.80;99.90;;;8.07;100.00;101435.09;4973038;28;20051;-66
2024/01/14 00:49:50;;;;;;;17.98;10.68;;;7.80;99.90;;;8.09;100.00;101433.38;4972866;28;20466;-66
2024/01/14 00:52:19;;;;;;;22.55;11.80;;;7.90;99.90;;;8.07;100.00;101430.69;4972919;28;20050;-65
2024/01/14 00:54:47;;;;;;;17.48;10.70;;;7.90;99.90;;;8.14;100.00;101427.31;4972793;28;20046;-66
2024/01/14 00:57:16;;;;;;;15.45;9.73;;;8.00;99.90;;;8.08;100.00;101421.03;4971876;28;20068;-65
2024/01/14 00:59:45;;;;;;;14.38;10.20;;;8.00;99.90;;;7.88;100.00;101414.59;4972780;28;20127;-66
2024/01/14 01:02:15;;;;;;;17.52;10.80;;;7.80;99.90;;;7.77;100.00;101414.44;4972878;28;20046;-67
2024/01/14 01:04:43;;;;;;;14.18;10.10;;;7.60;99.90;;;7.89;100.00;101413.75;4971637;28;20047;-65
2024/01/14 01:07:12;;;;;;;13.25;8.32;;;7.70;99.90;;;7.98;100.00;101404.22;4972983;28;20050;-65
2024/01/14 01:09:40;;;;;;;11.18;7.40;;;7.80;99.90;;;7.81;100.00;101400.47;4972525;28;20097;-67
2024/01/14 01:12:09;;;;;;;14.75;8.13;;;7.70;99.90;;;7.87;100.00;101395.28;4972539;28;20097;-67
2024/01/14 01:14:37;;;;;;;8.85;7.93;;;7.70;99.90;;;7.93;100.00;101397.13;4972772;28;20038;-66
2024/01/14 01:17:05;;;;;;;11.45;7.90;;;7.80;99.90;;;8.02;100.00;101395.50;4972603;28;20055;-65
2024/01/14 01:19:35;;;;;;;11.05;7.80;;;7.90;99.90;;;8.04;100.00;101391.13;4972789;28;20054;-66
2024/01/14 01:22:04;;;;;;;12.88;7.68;;;7.90;99.90;;;8.05;100.00;101374.47;4972995;28;20062;-65
2024/01/14 01:24:33;;;;;;;12.75;7.97;;;8.00;99.90;;;8.30;100.00;101393.28;4987476;28;20448;-65
2024/01/14 01:27:01;;;;;;;13.38;7.72;;;8.10;99.90;;;8.16;100.00;101366.72;4972254;28;20102;-66
2024/01/14 01:29:30;;;;;;;13.50;7.88;;;8.10;99.90;;;8.33;100.00;101378.38;5462592;23;20072;-72
2024/01/14 01:31:58;;;;;;;13.57;7.80;;;8.20;99.90;;;8.03;100.00;101331.41;4971973;28;20047;-71
2024/01/14 01:34:37;;;;;;;12.27;7.85;;;8.20;99.90;;;8.35;100.00;101383.66;4971778;28;20047;-71
2024/01/14 01:37:06;;;;;;;15.63;8.18;;;8.10;99.90;;;8.40;100.00;101379.34;4986792;28;20501;-71
2024/01/14 01:39:34;;;;;;;15.48;8.10;;;8.20;99.90;;;8.46;100.00;101374.16;4971542;28;20507;-72
2024/01/14 01:42:03;;;;;;;15.68;7.90;;;8.20;99.90;;;8.44;100.00;101373.25;4971867;28;20130;-72
2024/01/14 01:44:31;;;;;;;14.88;7.20;;;8.20;99.90;;;8.46;100.00;101374.16;4972172;28;20511;-72
2024/01/14 01:47:00;;;;;;;13.75;7.63;;;8.30;99.90;;;8.51;100.00;101367.19;4972032;28;20494;-71
2024/01/14 01:49:29;;;;;;;13.82;8.55;;;8.30;99.90;;;8.59;100.00;101365.53;4971571;28;20090;-72
2024/01/14 01:52:03;;;;;;;14.35;7.75;;;8.30;99.90;;;8.51;100.00;101372.47;4971823;28;20051;-72
2024/01/14 01:54:34;;;;;;;14.23;8.07;;;8.30;99.90;;;8.16;100.00;101371.97;4972159;28;20149;-71
2024/01/14 01:57:02;;;;;;;12.20;7.88;;;8.10;99.90;;;8.28;100.00;101371.28;4971922;28;20046;-71
2024/01/14 01:59:32;;;;;;;12.68;7.72;;;8.10;99.90;;;8.35;100.00;101362.59;4970373;28;20054;-71
2024/01/14 02:02:01;;;;;;;11.68;7.53;;;8.10;99.90;;;8.46;100.00;101361.00;4986636;28;20416;-71
2024/01/14 02:04:30;;;;;;;11.77;7.32;;;8.20;99.90;;;8.52;100.00;101363.66;4971866;28;20102;-71
2024/01/14 02:07:01;;;;;;;13.25;7.45;;;8.20;99.90;;;8.56;100.00;101368.09;4987029;28;20054;-69
2024/01/14 02:09:30;;;;;;;;;;;8.40;99.90;;;8.61;100.00;101356.78;4972283;28;20035;-71
2024/01/14 02:12:00;;;;;;;10.20;7.47;;;8.40;99.90;;;8.56;99.76;101354.94;4971845;28;19991;-69
2024/01/14 02:14:28;;;;;;;9.73;6.90;;;8.40;99.90;;;8.50;99.60;101352.22;4971448;28;20078;-71
2024/01/14 02:16:57;;;;;;;17.92;7.50;;;8.30;99.90;;;8.52;99.80;101351.38;4971890;28;20043;-71
2024/01/14 02:19:25;;;;;;;15.27;7.70;;;8.30;99.90;;;8.42;99.84;101344.22;4970190;28;20050;-70
2024/01/14 02:22:03;;;;;;;11.48;7.40;;;8.30;99.90;;;8.52;100.00;101351.38;4971388;28;20051;-71
2024/01/14 02:24:33;;;;;;;12.27;7.82;;;8.30;99.90;;;8.56;99.80;101352.28;4971277;28;20050;-70
2024/01/14 02:27:02;;;;;;;12.07;8.13;;;8.40;99.90;;;8.52;99.06;101345.22;4971691;28;20043;-70
2024/01/14 02:29:31;;;;;;;8.57;7.75;;;8.30;99.90;;;8.52;99.00;101337.31;4970988;28;20047;-70
2024/01/14 02:31:59;;;;;;;9.18;8.20;;;8.40;99.90;;;8.55;99.11;101345.25;4974763;28;20117;-71
2024/01/14 02:34:28;;;;;;;11.57;8.20;;;8.40;99.90;;;8.43;99.05;101339.84;4974840;28;20043;-70
2024/01/14 02:36:56;;;;;;;13.57;8.63;;;8.30;99.90;;;8.38;99.55;101331.88;4974860;28;20046;-70
2024/01/14 02:39:25;;;;;;;39.45;22.67;;;8.20;99.90;;;8.33;99.49;101328.31;4974676;28;20078;-70
2024/01/14 02:41:55;;;;;;;51.17;29.52;;;8.10;99.90;;;8.18;99.30;101325.47;4974945;28;20042;-70
2024/01/14 02:44:23;;;;;;;47.33;29.15;;;7.90;99.90;;;8.11;98.93;101319.22;4975138;28;20051;-69
2024/01/14 02:46:52;;;;;;;56.65;33.22;;;7.90;99.90;;;8.01;99.03;101312.06;4974557;28;20105;-71
2024/01/14 02:49:20;;;;;;;54.42;33.47;;;7.80;99.90;;;8.01;98.82;101319.97;4974554;28;20102;-69
2024/01/14 02:51:49;;;;;;;55.50;32.30;;;7.80;99.90;;;7.97;98.95;101314.66;4974587;28;20150;-71
2024/01/14 02:54:17;;;;;;;60.30;35.55;;;7.70;99.90;;;7.86;99.33;101317.13;4974522;28;20472;-69
2024/01/14 02:56:46;;;;;;;58.67;36.10;;;7.60;99.90;;;7.81;99.40;101308.28;4974776;28;20134;-71
2024/01/14 02:59:15;;;;;;;59.78;36.08;;;7.60;99.90;;;7.79;99.42;101303.84;4974635;28;20109;-70
2024/01/14 03:01:46;;;;;;;64.97;37.15;;;7.50;99.90;;;7.76;99.38;101301.19;4989736;28;20101;-71
2024/01/14 03:04:15;;;;;;;56.50;33.90;;;7.50;99.90;;;7.76;99.56;101291.53;4974907;28;20077;-71
2024/01/14 03:06:43;;;;;;;57.20;34.35;;;7.50;99.90;;;7.74;99.27;101301.16;4989599;28;20110;-70
2024/01/14 03:09:12;;;;;;;62.00;35.83;;;7.50;99.90;;;7.69;99.17;101294.06;4974853;28;20078;-70
2024/01/14 03:11:40;;;;;;;59.35;36.95;;;7.40;99.90;;;7.68;99.11;101287.03;4974190;28;20046;-70
2024/01/14 03:14:09;;;;;;;62.20;37.13;;;7.40;99.90;;;7.62;98.60;101281.69;4974531;28;20042;-71
2024/01/14 03:16:38;;;;;;;61.90;37.25;;;7.40;99.90;;;7.54;98.30;101286.84;4974341;28;20055;-69
2024/01/14 03:19:07;;;;;;;67.70;39.27;;;7.30;99.90;;;7.36;98.11;101281.28;4972899;28;20050;-71
2024/01/14 03:21:35;;;;;;;67.55;38.55;;;7.20;99.90;;;7.38;98.20;101276.94;4973936;28;20369;-70
2024/01/14 03:24:04;;;;;;;60.33;36.50;;;7.10;99.90;;;7.38;98.19;101282.22;4974335;28;20106;-70
2024/01/14 03:26:33;;;;;;;61.10;36.90;;;7.10;99.90;;;7.37;98.13;101275.19;4973786;28;20054;-69
2024/01/14 03:29:01;;;;;;;56.55;34.78;;;7.10;99.90;;;7.39;98.11;101268.22;4974365;28;20043;-70
2024/01/14 03:31:30;;;;;;;58.10;34.78;;;7.10;99.90;;;7.43;97.83;101271.75;4972499;28;20117;-70
2024/01/14 03:34:00;;;;;;;57.38;33.40;;;7.20;99.90;;;7.30;97.48;101249.63;4973684;28;20062;-68
2024/01/14 03:36:28;;;;;;;60.72;35.10;;;7.10;99.90;;;7.33;97.28;101257.59;4973902;28;20047;-70
2024/01/14 03:38:56;;;;;;;53.55;31.90;;;7.10;99.90;;;7.32;97.04;101253.16;4973633;28;20105;-71
2024/01/14 03:41:25;;;;;;;54.50;33.03;;;7.10;99.90;;;7.25;96.89;101240.81;4973406;28;20039;-69
2024/01/14 03:43:54;;;;;;;49.95;31.00;;;7.00;99.90;;;7.24;97.58;101236.38;4973785;28;20047;-70
2024/01/14 03:46:22;;;;;;;49.75;31.73;;;7.00;99.90;;;7.24;97.63;101236.38;4973707;28;20074;-70
2024/01/14 03:48:51;;;;;;;50.60;30.65;;;7.00;99.90;;;7.24;97.25;101239.00;4973423;28;20070;-70
2024/01/14 03:51:20;;;;;;;45.50;29.58;;;7.00;99.90;;;7.21;97.39;101234.63;4988237;28;20050;-69
2024/01/14 03:53:49;;;;;;;49.33;29.20;;;7.00;99.90;;;7.26;97.58;101242.56;4973381;28;20109;-70
2024/01/14 03:56:17;;;;;;;45.42;28.67;;;7.00;99.90;;;7.24;97.49;101234.66;4973604;28;20046;-73
2024/01/14 03:58:46;;;;;;;44.72;28.58;;;7.00;99.90;;;7.27;97.67;101239.06;4973627;28;20179;-72
2024/01/14 04:01:18;;;;;;;46.22;28.85;;;7.00;99.90;;;7.28;97.58;101238.19;4973215;28;20050;-70
2024/01/14 04:03:47;;;;;;;49.03;28.85;;;7.00;99.90;;;7.29;97.10;101226.84;4973307;28;20042;-70
2024/01/14 04:06:22;;;;;;;50.53;30.05;;;7.10;99.90;;;7.32;97.38;101235.66;4973177;28;20114;-70
2024/01/14 04:08:51;;;;;;;49.90;30.60;;;7.10;99.90;;;7.30;97.21;101223.31;4973471;28;20066;-69
2024/01/14 04:11:19;;;;;;;45.00;27.33;;;7.10;99.90;;;7.31;97.45;101222.47;4973298;28;20708;-71
2024/01/14 04:13:48;;;;;;;44.10;28.35;;;7.10;99.90;;;7.35;97.36;101219.03;4972082;28;20046;-70
2024/01/14 04:16:17;;;;;;;44.95;27.33;;;7.10;99.90;;;7.37;97.05;101222.56;4973082;28;20485;-70
2024/01/14 04:18:45;;;;;;;46.78;26.70;;;7.10;99.90;;;7.41;97.19;101211.22;4973038;28;20042;-70
2024/01/14 04:21:22;;;;;;;48.28;28.17;;;7.10;99.90;;;7.43;97.07;101211.25;4972976;28;20109;-71
2024/01/14 04:23:52;;;;;;;44.47;27.25;;;7.20;99.90;;;7.38;96.94;101197.13;4972937;28;20046;-71
2024/01/14 04:26:21;;;;;;;39.27;26.33;;;7.20;99.90;;;7.37;97.45;101198.88;4973208;28;20129;-70
2024/01/14 04:28:49;;;;;;;41.22;25.85;;;7.10;99.90;;;7.37;97.59;101187.47;4972856;28;20050;-70
2024/01/14 04:31:18;;;;;;;41.15;26.48;;;7.10;99.90;;;7.30;97.89;101179.50;4972543;28;20054;-70
2024/01/14 04:33:48;;;;;;;48.13;27.70;;;7.10;99.90;;;7.28;98.37;101186.47;4972675;28;20437;-71
2024/01/14 04:36:17;;;;;;;52.03;28.85;;;7.10;99.90;;;7.39;98.83;101186.63;4973078;28;20061;-71
2024/01/14 04:38:47;;;;;;;53.15;30.08;;;7.10;99.90;;;7.34;99.15;101185.66;4972950;28;20051;-70
2024/01/14 04:41:16;;;;;;;58.72;32.05;;;7.10;99.90;;;7.34;98.59;101185.66;4972827;28;20039;-70
2024/01/14 04:43:44;;;;;;;58.97;32.83;;;7.10;99.90;;;7.34;99.01;101180.41;4972722;28;20046;-70
2024/01/14 04:46:12;;;;;;;54.22;31.13;;;7.10;99.90;;;7.05;99.24;101152.81;4972643;28;20050;-70
2024/01/14 04:48:41;;;;;;;53.85;31.63;;;7.10;99.90;;;7.27;99.59;101170.69;4972907;28;20105;-69
2024/01/14 04:51:10;;;;;;;51.13;31.23;;;7.00;99.90;;;7.30;99.84;101173.34;4972858;28;20109;-70
2024/01/14 04:53:39;;;;;;;54.58;32.13;;;7.00;99.90;;;7.26;99.73;101169.78;4987204;28;20154;-71
2024/01/14 04:56:09;;;;;;;56.85;32.60;;;7.00;99.90;;;7.19;99.60;101164.41;4972828;28;20046;-70
2024/01/14 04:58:38;;;;;;;52.53;32.72;;;7.00;99.90;;;7.21;100.00;101173.22;4971355;28;20153;-70
2024/01/14 05:01:06;;;;;;;60.38;34.90;;;6.90;99.90;;;6.39;99.95;101043.22;4972380;28;20046;-71
2024/01/14 05:03:35;;;;;;;59.38;34.30;;;6.90;99.90;;;7.04;100.00;101161.59;4972416;28;20066;-69
2024/01/14 05:06:05;;;;;;;58.35;34.15;;;6.90;99.90;;;7.07;100.00;101151.09;4972221;28;20356;-71
2024/01/14 05:08:33;;;;;;;59.38;33.40;;;6.90;99.90;;;7.12;100.00;101152.91;4972187;28;20133;-71
2024/01/14 05:11:02;;;;;;;61.08;34.80;;;6.90;99.90;;;7.09;100.00;101146.75;4987298;28;20050;-70
2024/01/14 05:13:32;;;;;;;58.50;32.85;;;6.80;99.90;;;7.08;100.00;101143.22;4972360;28;20066;-70
2024/01/14 05:16:00;;;;;;;62.40;34.35;;;6.80;99.90;;;7.09;100.00;101146.75;4972530;28;20085;-69
2024/01/14 05:18:29;;;;;;;54.85;32.22;;;6.80;99.90;;;7.06;100.00;101144.97;4972111;28;20213;-71
2024/01/14 05:20:58;;;;;;;55.63;32.45;;;6.80;99.90;;;7.09;100.00;101141.47;4972362;28;20050;-70
2024/01/14 05:23:26;;;;;;;57.40;32.25;;;6.80;99.90;;;7.04;100.00;101130.03;4972248;28;20051;-69
2024/01/14 05:25:54;;;;;;;54.92;32.17;;;6.80;99.90;;;7.04;100.00;101132.66;4971767;28;20123;-70
2024/01/14 05:28:23;;;;;;;56.65;30.90;;;6.80;99.90;;;7.15;100.00;101136.31;4970399;28;20051;-70
2024/01/14 05:30:52;;;;;;;55.70;31.02;;;6.90;99.90;;;7.23;100.00;101140.81;4971805;28;20055;-68
2024/01/14 05:33:21;;;;;;;53.95;29.85;;;7.00;99.90;;;6.59;100.00;101017.22;4971533;28;20039;-70
2024/01/14 05:35:49;;;;;;;54.08;29.55;;;7.00;99.90;;;7.37;100.00;101133.09;4971740;28;20393;-71
2024/01/14 05:38:18;;;;;;;49.00;28.52;;;7.10;99.90;;;7.38;100.00;101133.97;4971485;28;20053;-71
2024/01/14 05:40:47;;;;;;;50.38;28.35;;;7.10;99.90;;;7.44;100.00;101121.78;4970448;28;20051;-70
2024/01/14 05:43:16;;;;;;;50.72;28.65;;;7.20;99.90;;;7.43;99.95;101127.03;4971506;28;20121;-69
2024/01/14 05:45:45;;;;;;;49.25;28.20;;;7.20;99.90;;;7.40;100.00;101126.97;4971701;28;20054;-70
2024/01/14 05:48:15;;;;;;;46.88;28.38;;;7.20;99.90;;;7.41;100.00;101113.88;4971651;28;20130;-71
2024/01/14 05:50:48;;;;;;;40.70;25.55;;;7.20;99.90;;;7.41;99.83;101113.88;4971434;28;20046;-69
2024/01/14 05:53:16;;;;;;;49.95;27.95;;;7.20;99.90;;;7.41;99.80;101113.88;4971231;28;20039;-71
2024/01/14 05:55:45;;;;;;;42.95;27.88;;;7.20;99.90;;;7.42;99.97;101117.34;4971352;28;20059;-69
2024/01/14 05:58:14;;;;;;;44.13;27.77;;;7.20;99.90;;;7.35;100.00;101108.53;4971294;28;20097;-71
2024/01/14 06:00:42;;;;;;;47.03;27.70;;;7.10;99.90;;;7.32;100.00;101111.09;4971310;28;20051;-69
2024/01/14 06:03:10;;;;;;;48.97;26.45;;;7.10;99.90;;;7.25;100.00;101098.75;4971952;28;20058;-71
2024/01/14 06:05:40;;;;;;;43.90;26.23;;;7.10;99.90;;;7.31;100.00;101106.72;4971457;28;20074;-70
2024/01/14 06:08:09;;;;;;;42.33;26.75;;;7.10;99.90;;;7.35;100.00;101099.72;4975263;28;20559;-69
2024/01/14 06:10:38;;;;;;;39.80;26.38;;;7.10;99.90;;;7.44;100.00;101087.56;4975242;28;20472;-70
2024/01/14 06:13:07;;;;;;;45.70;26.63;;;7.20;99.90;;;7.42;100.00;101089.28;4975182;28;20473;-71
2024/01/14 06:15:36;;;;;;;42.50;26.60;;;7.20;99.90;;;7.49;100.00;101087.63;4975068;28;20074;-70
2024/01/14 06:18:05;;;;;;;44.78;26.90;;;7.20;99.90;;;7.51;100.00;101089.41;4973757;28;20058;-70
2024/01/14 06:20:34;;;;;;;44.15;27.83;;;7.30;99.90;;;7.49;99.88;101079.75;4975061;28;20053;-69
2024/01/14 06:23:04;;;;;;;49.17;29.10;;;7.30;99.90;;;7.20;99.75;101043.44;4974947;28;20117;-70
2024/01/14 06:25:33;;;;;;;51.08;28.92;;;7.20;99.90;;;7.41;99.76;101082.28;4975388;28;20050;-69
2024/01/14 06:28:02;;;;;;;51.97;30.13;;;7.20;99.90;;;7.44;99.52;101069.16;4975182;28;20051;-70
2024/01/14 06:30:30;;;;;;;47.78;28.25;;;7.20;99.90;;;7.43;99.83;101070.03;4974859;28;20136;-69
2024/01/14 06:32:59;;;;;;;46.42;29.70;;;7.20;99.90;;;7.39;99.68;101070.84;4974658;28;20420;-69
2024/01/14 06:35:28;;;;;;;49.75;29.10;;;7.20;99.90;;;7.39;99.50;101068.22;4989890;28;20653;-70
2024/01/14 06:37:56;;;;;;;52.15;29.63;;;7.10;99.90;;;7.22;99.13;101027.66;4974923;28;20054;-69
2024/01/14 06:40:26;;;;;;;48.53;30.42;;;7.20;99.90;;;7.27;99.21;101034.78;4974858;28;20452;-71
2024/01/14 06:43:08;;;;;;;49.00;29.75;;;7.20;99.90;;;7.44;98.82;101056.00;4974623;28;20105;-70
2024/01/14 06:45:36;;;;;;;49.83;30.23;;;7.20;99.90;;;7.43;98.71;101059.50;4974574;28;20046;-70
2024/01/14 06:48:06;;;;;;;48.55;29.30;;;7.20;99.90;;;7.48;98.43;101049.91;4989522;28;20074;-70
2024/01/14 06:50:34;;;;;;;50.35;30.00;;;7.20;99.90;;;7.50;98.52;101049.91;4974589;28;20117;-71
2024/01/14 06:53:03;;;;;;;46.00;29.30;;;7.20;99.90;;;7.41;98.29;101048.09;4974518;28;20058;-69
2024/01/14 06:55:33;;;;;;;49.83;29.17;;;7.20;99.90;;;7.40;98.43;101050.66;4974396;28;20077;-71
2024/01/14 06:58:01;;;;;;;49.83;28.83;;;7.10;99.90;;;7.19;98.68;101041.69;4974965;28;20054;-72
2024/01/14 07:00:30;;;;;;;51.00;29.80;;;7.00;99.90;;;7.17;99.13;101050.41;4974891;28;20503;-72
2024/01/14 07:02:59;;;;;;;49.28;29.65;;;7.00;99.90;;;7.21;99.57;101057.47;4974660;28;20555;-72
2024/01/14 07:05:27;;;;;;;46.97;27.20;;;7.00;99.90;;;7.26;99.41;101045.25;4974473;28;20050;-73
2024/01/14 07:07:56;;;;;;;46.45;27.60;;;7.00;99.90;;;7.23;99.24;101035.59;4974366;28;20042;-73
2024/01/14 07:10:24;;;;;;;44.03;26.98;;;7.00;99.90;;;7.27;99.41;101047.03;4989505;28;20059;-73
2024/01/14 07:12:55;;;;;;;41.35;25.92;;;7.00;99.90;;;7.34;99.30;101046.22;4974318;28;20288;-71
2024/01/14 07:15:24;;;;;;;45.03;26.00;;;7.10;99.90;;;7.31;99.21;101048.84;4989403;28;20059;-73
2024/01/14 07:17:52;;;;;;;48.65;27.50;;;7.10;99.90;;;7.21;99.32;101037.31;4974513;28;20046;-75
2024/01/14 07:20:27;;;;;;;46.92;28.02;;;7.00;99.90;;;7.13;99.56;101048.59;4974390;28;20038;-71
2024/01/14 07:22:55;;;;;;;51.85;29.83;;;6.90;99.90;;;6.96;100.00;101045.78;4974256;28;20043;-72
2024/01/14 07:25:44;;;;;;;55.13;31.67;;;6.80;99.90;;;6.88;99.85;101030.75;4974361;28;20082;-68
2024/01/14 07:28:14;;;;;;;56.42;32.65;;;6.70;99.90;;;6.96;99.87;101050.16;4973193;28;20042;-79
2024/01/14 07:30:42;;;;;;;62.00;33.85;;;6.70;99.90;;;6.89;99.79;101051.78;4974463;28;20066;-75
2024/01/14 07:33:12;;;;;;;59.83;33.70;;;6.70;99.90;;;6.79;99.84;101039.41;4974163;28;20444;-72
2024/01/14 07:35:41;;;;;;;60.45;33.42;;;6.60;99.90;;;6.92;99.66;101058.84;4974247;28;20090;-73
2024/01/14 07:38:10;;;;;;;54.97;32.97;;;6.70;99.90;;;6.88;99.66;101043.91;4974463;28;20047;-73
2024/01/14 07:40:38;;;;;;;63.63;35.38;;;6.60;99.90;;;6.80;99.58;101053.41;4972696;28;20485;-74
2024/01/14 07:43:07;;;;;;;57.17;34.10;;;6.60;99.90;;;6.77;99.71;101054.28;4972571;28;20097;-76
2024/01/14 07:45:37;;;;;;;63.47;34.08;;;6.60;99.90;;;6.81;99.93;101055.22;4974059;28;20141;-75
2024/01/14 07:48:06;;;;;;;59.67;33.17;;;6.60;99.90;;;6.74;99.75;101053.34;4974319;28;20049;-77
2024/01/14 07:50:34;;;;;;;58.10;34.58;;;6.50;99.90;;;6.81;99.95;101053.47;4973709;28;20050;-76
2024/01/14 07:53:03;;;;;;;62.13;34.30;;;6.60;99.90;;;6.83;99.98;101051.72;4973792;28;20054;-76
2024/01/14 07:55:32;;;;;;;60.08;34.53;;;6.60;99.90;;;6.84;99.68;101049.97;4973575;28;20170;-71
2024/01/14 07:58:00;;;;;;;61.78;36.25;;;6.60;99.90;;;6.85;99.96;101054.38;4973605;28;20085;-73
2024/01/14 08:00:28;;;;;;;61.15;34.78;;;6.60;99.90;;;6.81;99.65;101049.94;4973363;28;20046;-74
2024/01/14 08:02:58;;;;;;;59.42;34.90;;;6.60;99.90;;;6.81;99.96;101047.31;4988728;28;20054;-69
2024/01/14 08:05:27;;;;;;;64.20;36.67;;;6.60;99.90;;;6.79;99.94;101043.78;4972451;28;20058;-69
2024/01/14 08:07:55;;;;;;;59.47;35.75;;;6.60;99.90;;;6.11;99.35;100927.22;4973694;28;20396;-71
2024/01/14 08:10:23;;;;;;;64.97;36.78;;;6.60;99.90;;;6.76;99.77;101051.63;4988514;28;20051;-70
2024/01/14 08:12:52;;;;;;;61.42;36.83;;;6.50;99.90;;;6.69;100.00;101044.53;4972352;28;20397;-71
2024/01/14 08:15:21;;;;;;;71.05;38.88;;;6.50;99.90;;;6.62;100.00;101042.69;4973054;28;20053;-69
2024/01/14 08:17:49;;;;;;;69.90;38.78;;;6.40;99.90;;;6.53;100.00;101042.53;4973353;28;20053;-69
2024/01/14 08:20:20;;;;;;;65.50;36.05;;;6.40;99.90;;;6.58;100.00;101046.13;4973113;28;20046;-69
2024/01/14 08:22:49;;;;;;;66.43;37.05;;;6.40;99.90;;;6.66;100.00;101039.22;4973230;28;20089;-70
2024/01/14 08:25:18;;;;;;;66.80;37.00;;;6.40;99.90;;;6.71;100.00;101038.44;4973269;28;20050;-69
2024/01/14 08:27:46;;;;;;;64.68;36.72;;;6.40;99.90;;;6.73;100.00;101027.94;4987212;28;20059;-70
2024/01/14 08:30:15;;;;;;;66.45;35.83;;;6.50;99.90;;;6.72;100.00;101036.66;4972697;28;20051;-68
2024/01/14 08:32:46;;;;;;;69.53;37.45;;;6.50;99.90;;;6.73;100.00;101036.72;4988031;28;20381;-68
2024/01/14 08:35:14;;;;;;;66.25;36.40;;;6.50;99.90;;;6.64;100.00;101039.19;4973144;28;20082;-69
2024/01/14 08:37:46;;;;;;;58.22;34.17;;;6.50;99.90;;;6.64;100.00;101035.69;4973347;28;20112;-71
2024/01/14 08:40:17;;;;;;;61.60;33.45;;;6.40;99.90;;;6.51;100.00;101007.47;4973121;28;20043;-70
2024/01/14 08:42:47;;;;;;;65.72;35.22;;;6.50;99.90;;;6.67;100.00;101038.34;4972610;28;20046;-69
2024/01/14 08:45:16;;;;;;;;;;;6.40;99.90;;;6.75;100.00;101034.09;4973349;28;20436;-71
2024/01/14 08:47:45;;;;;;;59.33;33.63;;;6.50;99.90;;;6.78;100.00;101020.97;4972439;28;19937;-71
2024/01/14 08:50:13;;;;;;;60.17;32.53;;;6.60;99.90;;;6.77;100.00;101029.75;4972233;28;20126;-71
2024/01/14 08:52:44;;;;;;;61.45;33.28;;;6.50;99.90;;;6.74;100.00;101024.44;4970614;28;20043;-71
2024/01/14 08:55:13;;;;;;;56.97;33.22;;;6.60;99.90;;;6.74;100.00;101025.31;4970639;28;20480;-71
2024/01/14 08:57:41;;;;;;;61.75;34.63;;;6.50;99.90;;;6.81;100.00;101019.28;4969107;28;20055;-71
2024/01/14 09:00:11;;;;;;;59.67;35.30;;;6.50;99.90;;;6.79;100.00;101009.63;4970467;28;20142;-70
2024/01/14 09:02:41;;;;;;;66.25;36.08;;;6.60;99.90;;;6.62;100.00;101006.75;4970536;28;20279;-71
2024/01/14 09:05:09;;;;;;;67.75;37.60;;;6.50;99.90;;;6.65;100.00;101011.16;4970406;28;20156;-70
2024/01/14 09:07:38;;;;;;;65.75;37.47;;;6.40;99.90;;;6.59;100.00;101003.19;4970362;28;20077;-70
2024/01/14 09:10:08;;;;;;;69.72;37.95;;;6.40;99.90;;;6.59;100.00;101000.56;4969204;28;20047;-71
2024/01/14 09:12:37;;;;;;;66.45;38.00;;;6.40;99.90;;;6.58;100.00;100998.81;4970271;28;20121;-70
2024/01/14 09:15:07;;;;;;;72.68;38.35;;;6.40;99.90;;;6.53;100.00;100990.88;4970070;28;20064;-72
2024/01/14 09:17:37;;;;;;;69.32;39.13;;;6.40;99.90;;;6.38;100.00;100970.53;4970585;28;20051;-70
2024/01/14 09:20:08;;;;;;;70.25;38.67;;;6.30;99.90;;;6.57;100.00;100999.66;4970354;28;20043;-71
2024/01/14 09:22:37;;;;;;;64.95;36.20;;;6.30;99.90;;;6.57;100.00;100997.03;4969997;28;20073;-72
2024/01/14 09:25:07;;;;;;;69.90;38.85;;;6.30;99.90;;;6.59;100.00;100990.94;4970459;28;20053;-71
2024/01/14 09:27:39;;;;;;;65.20;36.72;;;6.40;99.90;;;6.59;100.00;100990.94;4968789;28;20400;-71
2024/01/14 09:30:09;;;;;;;74.22;39.13;;;6.40;99.90;;;6.62;100.00;100990.97;4969905;28;20050;-69
2024/01/14 09:32:38;;;;;;;;;;;6.40;99.90;;;6.64;100.00;100988.41;4970210;28;20050;-70
2024/01/14 09:35:08;;;;;;;71.93;37.40;;;6.40;99.90;;;6.62;100.00;100990.13;4984745;28;19925;-70
2024/01/14 09:37:36;;;;;;;66.75;36.80;;;6.40;99.90;;;6.64;100.00;100985.78;4970314;28;20109;-70
2024/01/14 09:40:08;;;;;;;66.10;36.30;;;6.40;99.90;;;6.61;100.00;100978.72;4968414;28;20145;-71
2024/01/14 09:42:40;;;;;;;72.43;37.15;;;6.40;99.90;;;6.61;100.00;100990.97;4970228;28;20050;-70
2024/01/14 09:45:09;;;;;;;73.72;38.15;;;6.40;99.90;;;6.55;100.00;100972.47;4969618;28;20078;-70
2024/01/14 09:47:38;;;;;;;67.55;37.47;;;6.40;99.90;;;6.62;100.00;100984.88;4969576;28;20416;-71
2024/01/14 09:50:10;;;;;;;68.40;37.05;;;6.40;99.90;;;6.64;100.00;100989.25;4984640;28;20046;-71
2024/01/14 09:52:42;;;;;;;71.63;37.17;;;6.40;99.90;;;6.64;100.00;100989.25;4969589;28;20049;-70
2024/01/14 09:55:12;;;;;;;67.00;37.55;;;6.40;99.90;;;6.70;100.00;100985.81;4969555;28;20531;-71
2024/01/14 09:57:42;;;;;;;73.88;37.28;;;6.40;99.90;;;6.63;100.00;100973.47;4970165;28;20456;-70
2024/01/14 10:00:13;;;;;;;79.40;40.13;;;6.50;99.90;;;6.61;100.00;100985.72;4985029;28;20122;-71
2024/01/14 10:02:42;;;;;;;76.25;39.15;;;6.40;99.90;;;6.61;100.00;100977.81;4984651;28;20164;-69
2024/01/14 10:05:11;;;;;;;73.78;39.17;;;6.40;99.90;;;6.65;100.00;100980.53;4969397;28;20133;-70
2024/01/14 10:07:39;;;;;;;77.57;40.25;;;6.40;99.90;;;6.55;100.00;100977.75;4968268;28;20047;-71
2024/01/14 10:10:08;;;;;;;81.90;40.03;;;6.40;99.90;;;6.51;100.00;100965.41;4969097;28;20055;-70
2024/01/14 10:12:39;;;;;;;71.50;39.10;;;6.30;99.90;;;6.51;100.00;100960.16;4969283;28;20059;-71
2024/01/14 10:15:08;;;;;;;77.13;38.97;;;6.30;99.90;;;6.47;100.00;100968.88;4969166;28;20045;-71
2024/01/14 10:17:37;;;;;;;76.10;41.00;;;6.30;99.90;;;6.47;100.00;100964.50;4969472;28;20082;-70
2024/01/14 10:20:07;;;;;;;76.40;40.33;;;6.30;99.90;;;6.42;100.00;100944.28;4969180;28;20054;-70